Terminal Aerodrome Forecast
Issued by NWS Pendleton, OR

Home | Current Version | Previous Version | Text Only | Print | Product List | Glossary On
Versions: 1 2 3 4 5 6 7 8 9 10 11 12 13 14 15
000
FTUS46 KPDT 202300
TAFPDT
TAF
KPDT 202325Z 2100/2124 28015G24KT P6SM FEW060 FEW200
     FM210200 27014G22KT P6SM SKC
     FM210600 24011KT P6SM SCT080
     FM211000 19007KT P6SM SCT080
     FM211800 28010G18KT P6SM FEW080 SCT250=

USA.gov is the U.S. government's official web portal to all federal, state and local government web resources and services.